createdAt,value
2023-04-18T00:01:44.363Z,12.65
2023-04-18T00:04:14.157Z,14.40
2023-04-18T00:06:40.909Z,12.73
2023-04-18T00:09:08.367Z,16.90
2023-04-18T00:11:35.132Z,13.75
2023-04-18T00:14:03.279Z,10.55
2023-04-18T00:16:33.095Z,11.32
2023-04-18T00:19:03.490Z,10.13
2023-04-18T00:23:56.597Z,10.45
2023-04-18T00:26:23.170Z,12.32
2023-04-18T00:28:51.067Z,8.23
2023-04-18T00:31:17.654Z,18.35
2023-04-18T00:33:45.423Z,9.73
2023-04-18T00:36:15.044Z,8.25
2023-04-18T00:38:42.733Z,10.73
2023-04-18T00:41:10.822Z,8.45
2023-04-18T00:43:37.585Z,8.65
2023-04-18T00:46:05.447Z,14.35
2023-04-18T00:48:32.020Z,10.82
2023-04-18T00:51:00.248Z,9.40
2023-04-18T00:53:27.887Z,9.80
2023-04-18T00:55:54.929Z,7.53
2023-04-18T00:58:21.594Z,10.32
2023-04-18T01:00:50.789Z,9.63
2023-04-18T01:03:19.295Z,7.47
2023-04-18T01:05:46.486Z,10.40
2023-04-18T01:08:13.298Z,7.28
2023-04-18T01:10:42.040Z,7.70
2023-04-18T01:13:16.509Z,8.90
2023-04-18T01:15:44.542Z,8.18
2023-04-18T01:18:12.327Z,7.55
2023-04-18T01:20:41.639Z,7.45
2023-04-18T01:23:10.325Z,9.02
2023-04-18T01:25:37.326Z,9.35
2023-04-18T01:28:04.728Z,8.05
2023-04-18T01:30:32.362Z,8.93
2023-04-18T01:33:01.485Z,9.18
2023-04-18T01:35:28.493Z,10.48
2023-04-18T01:37:57.336Z,8.90
2023-04-18T01:40:24.703Z,9.02
2023-04-18T01:42:51.296Z,7.50
2023-04-18T01:45:20.163Z,8.02
2023-04-18T01:47:47.203Z,6.65
2023-04-18T01:50:13.970Z,7.20
2023-04-18T01:52:42.574Z,8.35
2023-04-18T01:55:09.617Z,10.73
2023-04-18T01:57:36.829Z,6.65
2023-04-18T02:00:08.045Z,7.82
2023-04-18T02:02:43.503Z,10.65
2023-04-18T02:05:12.889Z,7.13
2023-04-18T02:07:40.824Z,6.90
2023-04-18T02:10:07.876Z,9.07
2023-04-18T02:12:35.891Z,8.55
2023-04-18T02:15:02.700Z,10.35
2023-04-18T02:17:32.629Z,8.48
2023-04-18T02:19:59.103Z,8.75
2023-04-18T02:22:25.641Z,6.45
2023-04-18T02:24:52.805Z,7.43
2023-04-18T02:27:20.304Z,7.03
2023-04-18T02:29:46.855Z,6.20
2023-04-18T02:32:13.593Z,6.30
2023-04-18T02:34:43.500Z,8.88
2023-04-18T02:37:10.029Z,8.05
2023-04-18T02:39:37.885Z,8.88
2023-04-18T02:42:05.636Z,10.15
2023-04-18T02:44:32.106Z,8.13
2023-04-18T02:46:59.209Z,6.43
2023-04-18T02:49:25.892Z,8.38
2023-04-18T02:51:55.702Z,7.90
2023-04-18T02:54:22.282Z,7.60
2023-04-18T02:57:04.073Z,7.50
2023-04-18T02:59:52.787Z,7.68
2023-04-18T03:02:39.404Z,8.07
2023-04-18T03:05:21.416Z,7.35
2023-04-18T03:07:48.460Z,7.50
2023-04-18T03:10:16.333Z,10.00
2023-04-18T03:12:43.021Z,6.50
2023-04-18T03:15:11.621Z,8.10
2023-04-18T03:17:39.162Z,10.50
2023-04-18T03:20:06.394Z,8.13
2023-04-18T03:22:32.910Z,7.60
2023-04-18T03:25:01.070Z,7.75
2023-04-18T03:27:40.435Z,7.88
2023-04-18T03:30:07.875Z,7.95
2023-04-18T03:32:36.425Z,9.20
2023-04-18T03:35:03.326Z,7.72
2023-04-18T03:37:30.213Z,9.43
2023-04-18T03:39:57.241Z,8.55
2023-04-18T03:42:26.602Z,9.88
2023-04-18T03:44:55.203Z,7.72
2023-04-18T03:47:21.946Z,7.47
2023-04-18T03:49:54.456Z,8.00
2023-04-18T03:52:22.578Z,8.95
2023-04-18T03:54:49.092Z,10.48
2023-04-18T03:57:17.689Z,9.48
2023-04-18T03:59:46.053Z,8.40
2023-04-18T04:02:13.927Z,8.13
2023-04-18T04:04:43.099Z,9.75
2023-04-18T04:07:10.758Z,8.10
2023-04-18T04:09:37.266Z,9.63
2023-04-18T04:12:03.972Z,8.10
2023-04-18T04:14:30.585Z,10.48
2023-04-18T04:16:57.196Z,9.05
2023-04-18T04:19:23.778Z,10.20
2023-04-18T04:22:12.032Z,9.70
2023-04-18T04:24:46.681Z,9.30
2023-04-18T04:27:15.659Z,9.18
2023-04-18T04:29:43.710Z,8.95
2023-04-18T04:32:17.795Z,9.20
2023-04-18T04:34:46.281Z,9.00
2023-04-18T04:37:14.197Z,8.90
2023-04-18T04:39:53.270Z,8.35
2023-04-18T04:42:32.993Z,10.85
2023-04-18T04:45:08.222Z,8.68
2023-04-18T04:47:36.306Z,12.57
2023-04-18T04:50:05.243Z,9.30
2023-04-18T04:52:32.640Z,13.13
2023-04-18T04:54:59.584Z,8.23
2023-04-18T04:57:26.466Z,10.13
2023-04-18T04:59:53.310Z,11.07
2023-04-18T05:02:23.163Z,11.05
2023-04-18T05:04:50.070Z,12.90
2023-04-18T05:07:16.609Z,14.82
2023-04-18T05:09:43.397Z,9.23
2023-04-18T05:12:09.884Z,9.60
2023-04-18T05:14:36.386Z,9.52
2023-04-18T05:17:04.046Z,10.07
2023-04-18T05:19:31.989Z,10.95
2023-04-18T05:21:58.503Z,12.32
2023-04-18T05:24:27.601Z,11.05
2023-04-18T05:26:54.340Z,9.73
2023-04-18T05:29:21.044Z,9.98
2023-04-18T05:31:47.841Z,11.55
2023-04-18T05:34:17.235Z,10.25
2023-04-18T05:36:45.851Z,10.07
2023-04-18T05:39:12.649Z,10.98
2023-04-18T05:41:39.171Z,13.88
2023-04-18T05:44:07.155Z,9.63
2023-04-18T05:46:33.835Z,10.75
2023-04-18T05:49:00.649Z,8.82
2023-04-18T05:51:28.411Z,11.30
2023-04-18T05:53:55.043Z,14.10
2023-04-18T05:56:21.535Z,9.63
2023-04-18T05:58:51.203Z,13.82
2023-04-18T06:01:21.355Z,10.13
2023-04-18T06:03:48.159Z,9.93
2023-04-18T06:06:14.996Z,10.55
2023-04-18T06:08:41.722Z,9.43
2023-04-18T06:11:09.105Z,10.38
2023-04-18T06:13:38.853Z,10.15
2023-04-18T06:16:07.966Z,12.43
2023-04-18T06:18:36.617Z,10.48
2023-04-18T06:21:03.122Z,9.65
2023-04-18T06:23:29.656Z,13.07
2023-04-18T06:25:56.921Z,12.95
2023-04-18T06:28:23.756Z,9.73
2023-04-18T06:30:50.916Z,9.07
2023-04-18T06:33:17.450Z,10.77
2023-04-18T06:35:44.206Z,8.75
2023-04-18T06:38:14.676Z,9.07
2023-04-18T06:40:41.227Z,11.48
2023-04-18T06:43:07.682Z,9.25
2023-04-18T06:45:34.936Z,10.73
2023-04-18T06:48:03.773Z,11.05
2023-04-18T06:50:30.638Z,10.20
2023-04-18T06:52:57.629Z,9.10
2023-04-18T06:55:24.136Z,8.60
2023-04-18T06:57:52.071Z,10.80
2023-04-18T07:03:39.654Z,9.90
2023-04-18T07:06:10.468Z,8.10
2023-04-18T07:08:38.021Z,8.57
2023-04-18T07:11:06.214Z,8.88
2023-04-18T07:13:35.889Z,10.20
2023-04-18T07:16:03.549Z,7.10
2023-04-18T07:18:37.353Z,7.90
2023-04-18T07:21:07.482Z,8.73
2023-04-18T07:23:34.489Z,8.05
2023-04-18T07:26:03.633Z,8.50
2023-04-18T07:28:32.085Z,7.05
2023-04-18T07:31:00.193Z,8.15
2023-04-18T07:33:26.943Z,7.72
2023-04-18T07:35:53.497Z,7.53
2023-04-18T07:38:20.725Z,8.85
2023-04-18T07:41:09.214Z,8.60
2023-04-18T07:43:43.855Z,9.82
2023-04-18T07:46:13.036Z,9.23
2023-04-18T07:48:42.325Z,9.65
2023-04-18T07:51:08.913Z,7.30
2023-04-18T07:53:35.766Z,7.30
2023-04-18T07:56:02.273Z,6.15
2023-04-18T07:58:29.182Z,6.78
2023-04-18T08:00:56.060Z,6.43
2023-04-18T08:03:22.813Z,6.93
2023-04-18T08:05:50.093Z,6.93
2023-04-18T08:08:16.733Z,6.07
2023-04-18T08:10:43.284Z,8.70
2023-04-18T08:13:09.818Z,5.47
2023-04-18T08:15:36.407Z,6.35
2023-04-18T08:18:03.028Z,8.48
2023-04-18T08:20:31.753Z,5.70
2023-04-18T08:23:07.612Z,7.65
2023-04-18T08:25:36.393Z,6.43
2023-04-18T08:28:04.096Z,7.53
2023-04-18T08:30:31.662Z,5.40
2023-04-18T08:33:01.063Z,5.78
2023-04-18T08:35:30.114Z,7.90
2023-04-18T08:38:01.611Z,5.70
2023-04-18T08:40:30.229Z,5.00
2023-04-18T08:42:58.550Z,5.93
2023-04-18T08:45:26.138Z,5.57
2023-04-18T08:47:54.016Z,6.90
2023-04-18T08:50:21.397Z,7.03
2023-04-18T08:52:50.639Z,6.68
2023-04-18T08:55:18.987Z,6.10
2023-04-18T08:57:45.802Z,4.97
2023-04-18T09:00:14.319Z,7.07
2023-04-18T09:02:42.410Z,5.55
2023-04-18T09:05:15.037Z,4.97
2023-04-18T09:07:42.500Z,6.93
2023-04-18T09:10:10.121Z,5.07
2023-04-18T09:12:50.736Z,5.95
2023-04-18T09:15:20.405Z,6.20
2023-04-18T09:17:50.945Z,5.55
2023-04-18T09:20:35.165Z,8.43
2023-04-18T09:23:10.339Z,5.70
2023-04-18T09:25:47.891Z,5.63
2023-04-18T09:28:33.105Z,8.18
2023-04-18T09:31:10.176Z,7.03
2023-04-18T09:33:38.220Z,6.30
2023-04-18T09:36:19.971Z,7.03
2023-04-18T09:38:47.555Z,7.47
2023-04-18T09:41:21.261Z,5.65
2023-04-18T09:43:48.609Z,8.40
2023-04-18T09:46:17.514Z,8.98
2023-04-18T09:48:44.233Z,5.95
2023-04-18T09:51:14.803Z,4.70
2023-04-18T09:53:44.545Z,4.32
2023-04-18T09:56:28.216Z,5.43
2023-04-18T09:59:07.312Z,4.78
2023-04-18T10:01:34.579Z,4.97
2023-04-18T10:04:03.345Z,6.00
2023-04-18T10:06:33.446Z,4.80
2023-04-18T10:09:04.211Z,4.90
2023-04-18T10:11:32.371Z,4.97
2023-04-18T10:14:06.875Z,3.92
2023-04-18T10:16:34.923Z,5.97
2023-04-18T10:19:29.374Z,4.30
2023-04-18T10:22:01.470Z,4.03
2023-04-18T10:24:48.338Z,3.42
2023-04-18T10:27:17.019Z,5.50
2023-04-18T10:29:49.382Z,5.10
2023-04-18T10:32:18.129Z,6.00
2023-04-18T10:34:47.194Z,4.97
2023-04-18T10:37:13.747Z,4.75
2023-04-18T10:40:07.137Z,4.57
2023-04-18T10:42:51.811Z,3.72
2023-04-18T10:45:22.092Z,4.68
2023-04-18T10:47:48.965Z,5.45
2023-04-18T10:50:19.456Z,4.80
2023-04-18T10:52:46.154Z,4.75
2023-04-18T10:55:19.163Z,3.90
2023-04-18T10:57:50.675Z,4.82
2023-04-18T11:00:22.793Z,4.68
2023-04-18T11:02:52.167Z,5.05
2023-04-18T11:05:21.186Z,3.80
2023-04-18T11:07:50.675Z,5.45
2023-04-18T11:10:26.233Z,5.78
2023-04-18T11:12:54.176Z,4.25
2023-04-18T11:15:22.942Z,4.78
2023-04-18T11:18:03.846Z,5.05
2023-04-18T11:20:38.553Z,5.95
2023-04-18T11:23:16.182Z,5.90
2023-04-18T11:25:44.847Z,6.47
2023-04-18T11:28:14.001Z,7.40
2023-04-18T11:30:41.328Z,6.05
2023-04-18T11:33:13.375Z,6.35
2023-04-18T11:35:44.582Z,7.03
2023-04-18T11:38:15.939Z,6.30
2023-04-18T11:40:50.846Z,6.18
2023-04-18T11:43:22.513Z,7.13
2023-04-18T11:45:57.025Z,6.65
2023-04-18T11:48:24.202Z,7.50
2023-04-18T11:50:50.763Z,8.73
2023-04-18T11:53:35.457Z,7.57
2023-04-18T11:56:03.526Z,6.70
2023-04-18T11:58:34.377Z,8.40
2023-04-18T12:01:22.348Z,6.97
2023-04-18T12:04:05.975Z,7.40
2023-04-18T12:06:49.222Z,7.35
2023-04-18T12:09:17.465Z,6.68
2023-04-18T12:11:44.368Z,7.25
2023-04-18T12:14:21.610Z,6.85
2023-04-18T12:16:51.838Z,9.90
2023-04-18T12:19:20.598Z,8.75
2023-04-18T12:22:05.057Z,7.28
2023-04-18T12:24:32.316Z,7.60
2023-04-18T12:27:00.671Z,7.78
2023-04-18T12:29:28.733Z,9.85
2023-04-18T12:31:55.555Z,8.63
2023-04-18T12:34:22.102Z,12.35
2023-04-18T12:36:48.686Z,9.82
2023-04-18T12:39:15.623Z,9.60
2023-04-18T12:41:43.238Z,7.63
2023-04-18T12:44:09.679Z,8.60
2023-04-18T12:46:36.415Z,9.15
2023-04-18T12:49:02.966Z,18.13
2023-04-18T12:51:29.496Z,9.55
2023-04-18T12:53:56.312Z,8.05
2023-04-18T12:56:22.859Z,9.75
2023-04-18T12:58:49.411Z,9.05
2023-04-18T13:01:16.511Z,9.25
2023-04-18T13:03:45.554Z,9.35
2023-04-18T13:06:15.551Z,8.77
2023-04-18T13:08:42.562Z,9.98
2023-04-18T13:11:09.266Z,10.18
2023-04-18T13:13:37.147Z,10.48
2023-04-18T13:16:04.342Z,10.27
2023-04-18T13:18:30.854Z,12.05
2023-04-18T13:20:58.428Z,10.18
2023-04-18T13:23:24.999Z,10.30
2023-04-18T13:25:51.639Z,11.23
2023-04-18T13:28:18.158Z,8.77
2023-04-18T13:30:45.210Z,9.90
2023-04-18T13:33:11.785Z,11.95
2023-04-18T13:35:38.370Z,10.98
2023-04-18T13:38:04.785Z,10.27
2023-04-18T13:40:33.400Z,10.90
2023-04-18T13:42:59.905Z,10.70
2023-04-18T13:45:26.416Z,11.40
2023-04-18T13:47:52.845Z,11.77
2023-04-18T13:50:20.278Z,11.35
2023-04-18T13:52:48.628Z,9.95
2023-04-18T13:55:16.116Z,10.60
2023-04-18T13:57:42.602Z,9.93
2023-04-18T14:00:09.841Z,11.82
2023-04-18T14:02:40.270Z,8.93
2023-04-18T14:05:07.384Z,10.88
2023-04-18T14:07:34.018Z,10.40
2023-04-18T14:10:00.645Z,10.13
2023-04-18T14:12:27.123Z,10.15
2023-04-18T14:14:53.735Z,11.32
2023-04-18T14:17:20.217Z,9.40
2023-04-18T14:19:46.704Z,9.40
2023-04-18T14:22:13.494Z,10.52
2023-04-18T14:24:39.996Z,11.38
2023-04-18T14:27:06.511Z,10.65
2023-04-18T14:29:33.018Z,10.68
2023-04-18T14:32:01.952Z,9.57
2023-04-18T14:34:31.229Z,9.13
2023-04-18T14:36:59.813Z,10.48
2023-04-18T14:39:26.243Z,12.57
2023-04-18T14:41:54.669Z,10.77
2023-04-18T14:44:21.109Z,9.65
2023-04-18T14:46:48.813Z,9.88
2023-04-18T14:49:15.526Z,9.48
2023-04-18T14:51:43.390Z,9.35
2023-04-18T14:54:10.162Z,10.93
2023-04-18T14:56:36.664Z,10.25
2023-04-18T14:59:03.769Z,10.55
2023-04-18T15:01:31.657Z,8.18
2023-04-18T15:04:00.623Z,9.02
2023-04-18T15:06:27.297Z,9.60
2023-04-18T15:08:56.666Z,9.80
2023-04-18T15:11:23.687Z,9.63
2023-04-18T15:13:51.700Z,9.95
2023-04-18T15:16:18.348Z,11.13
2023-04-18T15:18:45.118Z,8.35
2023-04-18T15:21:11.560Z,10.48
2023-04-18T15:23:38.289Z,9.02
2023-04-18T15:26:04.884Z,10.82
2023-04-18T15:28:31.364Z,10.00
2023-04-18T15:30:57.866Z,13.52
2023-04-18T15:33:25.933Z,8.80
2023-04-18T15:35:52.477Z,10.20
2023-04-18T15:38:19.093Z,10.65
2023-04-18T15:40:45.724Z,9.63
2023-04-18T15:43:13.725Z,10.52
2023-04-18T15:45:40.697Z,8.73
2023-04-18T15:48:07.178Z,8.10
2023-04-18T15:50:33.876Z,9.73
2023-04-18T15:53:00.600Z,7.75
2023-04-18T15:55:29.839Z,9.18
2023-04-18T15:57:56.399Z,10.45
2023-04-18T16:00:26.533Z,7.80
2023-04-18T16:02:53.637Z,8.18
2023-04-18T16:05:20.149Z,8.38
2023-04-18T16:07:46.573Z,8.60
2023-04-18T16:10:15.017Z,7.78
2023-04-18T16:12:41.559Z,8.50
2023-04-18T16:15:09.653Z,10.15
2023-04-18T16:17:37.357Z,9.27
2023-04-18T16:20:06.087Z,7.95
2023-04-18T16:22:32.801Z,8.43
2023-04-18T16:24:59.733Z,8.30
2023-04-18T16:27:26.303Z,7.38
2023-04-18T16:29:53.732Z,10.82
2023-04-18T16:32:20.399Z,6.78
2023-04-18T16:34:47.357Z,9.77
2023-04-18T16:37:13.771Z,7.80
2023-04-18T16:39:42.499Z,10.90
2023-04-18T16:42:09.072Z,8.10
2023-04-18T16:44:35.653Z,8.82
2023-04-18T16:47:02.353Z,8.57
2023-04-18T16:49:28.996Z,7.68
2023-04-18T16:51:55.460Z,7.28
2023-04-18T16:54:21.909Z,8.13
2023-04-18T16:56:48.618Z,7.32
2023-04-18T16:59:16.223Z,6.57
2023-04-18T17:01:42.758Z,6.75
2023-04-18T17:04:09.358Z,8.52
2023-04-18T17:06:35.898Z,8.32
2023-04-18T17:09:03.558Z,7.35
2023-04-18T17:11:32.050Z,8.02
2023-04-18T17:13:58.444Z,6.55
2023-04-18T17:16:25.048Z,6.15
2023-04-18T17:18:51.531Z,7.53
2023-04-18T17:21:18.051Z,8.48
2023-04-18T17:23:44.579Z,7.47
2023-04-18T17:26:11.219Z,7.57
2023-04-18T17:28:37.762Z,8.02
2023-04-18T17:31:05.994Z,9.00
2023-04-18T17:33:32.502Z,7.97
2023-04-18T17:35:58.980Z,8.35
2023-04-18T17:38:25.587Z,8.80
2023-04-18T17:41:00.404Z,7.25
2023-04-18T17:43:27.271Z,8.32
2023-04-18T17:45:54.042Z,8.40
2023-04-18T17:48:22.784Z,7.75
2023-04-18T17:50:49.195Z,7.25
2023-04-18T17:53:18.490Z,8.02
2023-04-18T17:55:46.815Z,7.63
2023-04-18T17:58:16.579Z,8.75
2023-04-18T18:00:44.335Z,9.30
2023-04-18T18:03:16.344Z,6.78
2023-04-18T18:05:49.613Z,7.07
2023-04-18T18:08:16.396Z,6.45
2023-04-18T18:10:46.535Z,8.07
2023-04-18T18:13:13.684Z,8.93
2023-04-18T18:15:40.210Z,8.20
2023-04-18T18:18:06.788Z,9.50
2023-04-18T18:20:33.282Z,7.90
2023-04-18T18:22:59.817Z,9.43
2023-04-18T18:25:26.971Z,7.20
2023-04-18T18:27:54.445Z,7.93
2023-04-18T18:30:21.687Z,8.80
2023-04-18T18:32:48.393Z,7.30
2023-04-18T18:35:16.077Z,8.07
2023-04-18T18:37:43.626Z,8.82
2023-04-18T18:40:11.720Z,7.63
2023-04-18T18:42:38.221Z,9.30
2023-04-18T18:45:05.841Z,10.82
2023-04-18T18:47:32.349Z,10.07
2023-04-18T18:49:58.976Z,11.65
2023-04-18T18:52:28.038Z,14.13
2023-04-18T18:54:55.040Z,9.13
2023-04-18T18:57:21.595Z,8.68
2023-04-18T18:59:50.982Z,10.13
2023-04-18T19:02:17.710Z,9.40
2023-04-18T19:04:44.708Z,7.72
2023-04-18T19:07:11.591Z,12.70
2023-04-18T19:09:38.114Z,8.02
2023-04-18T19:12:05.234Z,8.30
2023-04-18T19:14:33.862Z,8.65
2023-04-18T19:17:00.748Z,7.80
2023-04-18T19:19:27.263Z,9.50
2023-04-18T19:21:53.776Z,10.55
2023-04-18T19:24:20.629Z,8.57
2023-04-18T19:26:47.117Z,8.30
2023-04-18T19:29:16.408Z,6.38
2023-04-18T19:31:43.981Z,10.07
2023-04-18T19:34:10.904Z,6.30
2023-04-18T19:36:37.391Z,5.20
2023-04-18T19:39:04.142Z,9.25
2023-04-18T19:41:30.653Z,6.60
2023-04-18T19:43:59.395Z,7.30
2023-04-18T19:46:27.093Z,9.60
2023-04-18T19:48:54.720Z,8.77
2023-04-18T19:51:21.607Z,5.38
2023-04-18T19:53:48.148Z,5.95
2023-04-18T19:56:15.724Z,5.85
2023-04-18T19:58:46.444Z,7.50
2023-04-18T20:01:16.715Z,7.10
2023-04-18T20:03:43.589Z,5.28
2023-04-18T20:06:11.492Z,9.90
2023-04-18T20:08:41.510Z,6.40
2023-04-18T20:11:10.412Z,6.50
2023-04-18T20:13:38.703Z,6.57
2023-04-18T20:16:07.447Z,6.43
2023-04-18T20:18:35.847Z,7.88
2023-04-18T20:21:03.461Z,9.38
2023-04-18T20:23:30.911Z,7.22
2023-04-18T20:25:57.703Z,5.43
2023-04-18T20:28:24.451Z,6.50
2023-04-18T20:30:51.050Z,6.25
2023-04-18T20:33:17.537Z,6.75
2023-04-18T20:35:48.202Z,7.47
2023-04-18T20:38:15.160Z,5.03
2023-04-18T20:40:47.229Z,7.07
2023-04-18T20:43:17.397Z,6.88
2023-04-18T20:45:45.986Z,6.07
2023-04-18T20:48:14.006Z,6.07
2023-04-18T20:50:41.043Z,7.13
2023-04-18T20:53:07.476Z,6.97
2023-04-18T20:55:33.939Z,6.25
2023-04-18T20:58:00.573Z,6.18
2023-04-18T21:00:28.160Z,8.70
2023-04-18T21:02:56.217Z,6.50
2023-04-18T21:05:23.562Z,5.80
2023-04-18T21:07:50.366Z,5.72
2023-04-18T21:10:21.208Z,6.97
2023-04-18T21:12:47.889Z,6.72
2023-04-18T21:15:17.695Z,5.40
2023-04-18T21:17:45.837Z,6.78
2023-04-18T21:20:13.719Z,6.38
2023-04-18T21:22:40.476Z,5.68
2023-04-18T21:25:07.558Z,8.65
2023-04-18T21:27:34.022Z,5.75
2023-04-18T21:30:02.249Z,8.23
2023-04-18T21:32:30.465Z,5.60
2023-04-18T21:34:57.802Z,7.78
2023-04-18T21:37:25.189Z,6.25
2023-04-18T21:39:52.133Z,6.75
2023-04-18T21:42:18.689Z,5.70
2023-04-18T21:44:45.247Z,4.95
2023-04-18T21:47:11.702Z,8.10
2023-04-18T21:49:38.247Z,5.82
2023-04-18T21:52:04.922Z,6.38
2023-04-18T21:54:31.367Z,5.97
2023-04-18T21:56:58.453Z,6.07
2023-04-18T21:59:24.918Z,6.60
2023-04-18T22:01:51.363Z,5.13
2023-04-18T22:04:21.007Z,5.97
2023-04-18T22:06:47.842Z,4.88
2023-04-18T22:09:14.462Z,7.70
2023-04-18T22:11:41.246Z,6.63
2023-04-18T22:14:09.842Z,6.03
2023-04-18T22:16:38.054Z,5.95
2023-04-18T22:19:05.658Z,4.80
2023-04-18T22:21:32.204Z,7.75
2023-04-18T22:23:58.634Z,5.90
2023-04-18T22:26:25.293Z,7.85
2023-04-18T22:28:51.761Z,7.35
2023-04-18T22:31:18.298Z,6.20
2023-04-18T22:33:47.409Z,6.60
2023-04-18T22:36:13.945Z,6.85
2023-04-18T22:38:40.345Z,5.32
2023-04-18T22:41:07.828Z,6.25
2023-04-18T22:43:34.395Z,6.75
2023-04-18T22:46:00.973Z,7.00
2023-04-18T22:48:27.488Z,5.65
2023-04-18T22:50:54.281Z,6.32
2023-04-18T22:53:21.992Z,5.55
2023-04-18T22:55:48.427Z,6.60
2023-04-18T22:58:14.919Z,5.07
2023-04-18T23:00:41.526Z,7.97
2023-04-18T23:03:08.191Z,5.15
2023-04-18T23:05:35.328Z,5.05
2023-04-18T23:08:01.954Z,5.70
2023-04-18T23:10:29.950Z,6.82
2023-04-18T23:12:56.557Z,5.72
2023-04-18T23:15:23.170Z,6.47
2023-04-18T23:17:52.891Z,6.45
2023-04-18T23:20:20.746Z,6.32
2023-04-18T23:22:51.477Z,6.97
2023-04-18T23:25:19.304Z,6.70
2023-04-18T23:27:45.791Z,5.93
2023-04-18T23:30:14.108Z,7.15
2023-04-18T23:32:40.645Z,9.30
2023-04-18T23:35:07.569Z,7.68
2023-04-18T23:37:35.488Z,6.82
2023-04-18T23:40:05.328Z,6.05
2023-04-18T23:42:36.156Z,7.40
2023-04-18T23:45:04.044Z,6.07
2023-04-18T23:47:30.634Z,6.22
2023-04-18T23:49:57.494Z,8.02
2023-04-18T23:52:24.191Z,9.95
2023-04-18T23:54:50.717Z,6.47
2023-04-18T23:57:23.954Z,7.97
2023-04-18T23:59:50.488Z,9.20
